sensor_id;sensor_type;location;lat;lon;timestamp;P1;durP1;ratioP1;P2;durP2;ratioP2
42614;SDS011;28754;47.700;7.924;2023-04-06T00:00:32;4.60;;;3.03;;
42614;SDS011;28754;47.700;7.924;2023-04-06T00:03:25;4.43;;;2.88;;
42614;SDS011;28754;47.700;7.924;2023-04-06T00:06:18;4.82;;;3.13;;
42614;SDS011;28754;47.700;7.924;2023-04-06T00:09:07;7.15;;;3.40;;
42614;SDS011;28754;47.700;7.924;2023-04-06T00:11:54;5.85;;;2.72;;
42614;SDS011;28754;47.700;7.924;2023-04-06T00:14:41;8.02;;;3.22;;
42614;SDS011;28754;47.700;7.924;2023-04-06T00:17:27;4.82;;;2.65;;
42614;SDS011;28754;47.700;7.924;2023-04-06T00:20:15;6.25;;;3.63;;
42614;SDS011;28754;47.700;7.924;2023-04-06T00:23:02;6.90;;;3.35;;
42614;SDS011;28754;47.700;7.924;2023-04-06T00:25:49;9.23;;;3.30;;
42614;SDS011;28754;47.700;7.924;2023-04-06T00:28:36;7.63;;;3.53;;
42614;SDS011;28754;47.700;7.924;2023-04-06T00:31:23;5.47;;;3.28;;
42614;SDS011;28754;47.700;7.924;2023-04-06T00:34:10;3.70;;;2.95;;
42614;SDS011;28754;47.700;7.924;2023-04-06T00:36:57;5.03;;;3.47;;
42614;SDS011;28754;47.700;7.924;2023-04-06T00:39:43;5.43;;;3.05;;
42614;SDS011;28754;47.700;7.924;2023-04-06T00:42:30;5.63;;;3.22;;
42614;SDS011;28754;47.700;7.924;2023-04-06T00:45:17;4.80;;;3.30;;
42614;SDS011;28754;47.700;7.924;2023-04-06T00:48:04;3.25;;;2.90;;
42614;SDS011;28754;47.700;7.924;2023-04-06T00:50:52;5.57;;;3.25;;
42614;SDS011;28754;47.700;7.924;2023-04-06T00:53:39;4.07;;;2.78;;
42614;SDS011;28754;47.700;7.924;2023-04-06T00:56:26;7.75;;;4.05;;
42614;SDS011;28754;47.700;7.924;2023-04-06T00:59:13;7.78;;;3.38;;
42614;SDS011;28754;47.700;7.924;2023-04-06T01:02:00;4.38;;;3.13;;
42614;SDS011;28754;47.700;7.924;2023-04-06T01:04:59;5.72;;;3.55;;
42614;SDS011;28754;47.700;7.924;2023-04-06T01:07:53;5.88;;;2.90;;
42614;SDS011;28754;47.700;7.924;2023-04-06T01:10:44;5.15;;;2.90;;
42614;SDS011;28754;47.700;7.924;2023-04-06T01:13:41;6.13;;;3.67;;
42614;SDS011;28754;47.700;7.924;2023-04-06T01:16:35;6.07;;;3.13;;
42614;SDS011;28754;47.700;7.924;2023-04-06T01:19:28;7.53;;;3.20;;
42614;SDS011;28754;47.700;7.924;2023-04-06T01:22:15;7.78;;;3.40;;
42614;SDS011;28754;47.700;7.924;2023-04-06T01:25:10;4.43;;;3.28;;
42614;SDS011;28754;47.700;7.924;2023-04-06T01:28:22;4.22;;;2.85;;
42614;SDS011;28754;47.700;7.924;2023-04-06T01:31:26;7.32;;;2.83;;
42614;SDS011;28754;47.700;7.924;2023-04-06T01:34:13;4.80;;;3.30;;
42614;SDS011;28754;47.700;7.924;2023-04-06T01:37:00;7.28;;;3.45;;
42614;SDS011;28754;47.700;7.924;2023-04-06T01:39:50;6.97;;;3.33;;
42614;SDS011;28754;47.700;7.924;2023-04-06T01:42:45;4.80;;;2.78;;
42614;SDS011;28754;47.700;7.924;2023-04-06T01:45:38;4.78;;;3.17;;
42614;SDS011;28754;47.700;7.924;2023-04-06T01:48:34;5.82;;;3.10;;
42614;SDS011;28754;47.700;7.924;2023-04-06T01:51:28;5.43;;;2.88;;
42614;SDS011;28754;47.700;7.924;2023-04-06T01:54:19;4.85;;;2.70;;
42614;SDS011;28754;47.700;7.924;2023-04-06T01:57:26;5.38;;;2.85;;
42614;SDS011;28754;47.700;7.924;2023-04-06T02:00:24;8.30;;;3.30;;
42614;SDS011;28754;47.700;7.924;2023-04-06T02:03:13;5.80;;;2.97;;
42614;SDS011;28754;47.700;7.924;2023-04-06T02:06:01;4.75;;;2.92;;
42614;SDS011;28754;47.700;7.924;2023-04-06T02:08:54;4.45;;;2.67;;
42614;SDS011;28754;47.700;7.924;2023-04-06T02:11:41;6.00;;;3.65;;
42614;SDS011;28754;47.700;7.924;2023-04-06T02:14:28;4.95;;;3.47;;
42614;SDS011;28754;47.700;7.924;2023-04-06T02:17:18;3.90;;;3.28;;
42614;SDS011;28754;47.700;7.924;2023-04-06T02:20:05;4.28;;;2.50;;
42614;SDS011;28754;47.700;7.924;2023-04-06T02:22:52;4.95;;;2.33;;
42614;SDS011;28754;47.700;7.924;2023-04-06T02:25:40;4.95;;;3.42;;
42614;SDS011;28754;47.700;7.924;2023-04-06T02:28:27;4.38;;;2.72;;
42614;SDS011;28754;47.700;7.924;2023-04-06T02:31:13;4.10;;;2.92;;
42614;SDS011;28754;47.700;7.924;2023-04-06T02:34:02;4.45;;;2.63;;
42614;SDS011;28754;47.700;7.924;2023-04-06T02:36:51;4.55;;;3.13;;
42614;SDS011;28754;47.700;7.924;2023-04-06T02:39:37;4.53;;;2.72;;
42614;SDS011;28754;47.700;7.924;2023-04-06T02:42:27;7.22;;;2.53;;
42614;SDS011;28754;47.700;7.924;2023-04-06T02:45:14;5.65;;;2.95;;
42614;SDS011;28754;47.700;7.924;2023-04-06T02:48:04;3.72;;;2.33;;
42614;SDS011;28754;47.700;7.924;2023-04-06T02:50:52;3.88;;;2.28;;
42614;SDS011;28754;47.700;7.924;2023-04-06T02:53:39;6.53;;;3.50;;
42614;SDS011;28754;47.700;7.924;2023-04-06T02:56:25;5.45;;;2.97;;
42614;SDS011;28754;47.700;7.924;2023-04-06T02:59:12;3.70;;;2.58;;
42614;SDS011;28754;47.700;7.924;2023-04-06T03:02:03;3.63;;;2.67;;
42614;SDS011;28754;47.700;7.924;2023-04-06T03:04:51;4.30;;;2.40;;
42614;SDS011;28754;47.700;7.924;2023-04-06T03:07:44;5.53;;;3.25;;
42614;SDS011;28754;47.700;7.924;2023-04-06T03:10:38;7.05;;;3.65;;
42614;SDS011;28754;47.700;7.924;2023-04-06T03:13:25;7.10;;;3.40;;
42614;SDS011;28754;47.700;7.924;2023-04-06T03:16:15;6.63;;;3.17;;
42614;SDS011;28754;47.700;7.924;2023-04-06T03:19:02;5.10;;;3.83;;
42614;SDS011;28754;47.700;7.924;2023-04-06T03:21:53;8.13;;;4.15;;
42614;SDS011;28754;47.700;7.924;2023-04-06T03:24:41;6.75;;;3.63;;
42614;SDS011;28754;47.700;7.924;2023-04-06T03:27:28;5.60;;;3.22;;
42614;SDS011;28754;47.700;7.924;2023-04-06T03:30:15;4.18;;;3.17;;
42614;SDS011;28754;47.700;7.924;2023-04-06T03:33:03;5.70;;;3.90;;
42614;SDS011;28754;47.700;7.924;2023-04-06T03:35:55;8.13;;;3.58;;
42614;SDS011;28754;47.700;7.924;2023-04-06T03:38:45;6.20;;;4.07;;
42614;SDS011;28754;47.700;7.924;2023-04-06T03:41:34;8.23;;;3.72;;
42614;SDS011;28754;47.700;7.924;2023-04-06T03:44:28;4.28;;;3.17;;
42614;SDS011;28754;47.700;7.924;2023-04-06T03:47:15;5.72;;;3.67;;
42614;SDS011;28754;47.700;7.924;2023-04-06T03:50:02;7.78;;;4.82;;
42614;SDS011;28754;47.700;7.924;2023-04-06T03:52:50;5.10;;;4.05;;
42614;SDS011;28754;47.700;7.924;2023-04-06T03:55:37;6.13;;;4.30;;
42614;SDS011;28754;47.700;7.924;2023-04-06T03:58:23;8.65;;;4.70;;
42614;SDS011;28754;47.700;7.924;2023-04-06T04:01:12;11.18;;;4.53;;
42614;SDS011;28754;47.700;7.924;2023-04-06T04:03:58;8.57;;;4.82;;
42614;SDS011;28754;47.700;7.924;2023-04-06T04:06:45;6.25;;;4.03;;
42614;SDS011;28754;47.700;7.924;2023-04-06T04:09:32;5.63;;;4.43;;
42614;SDS011;28754;47.700;7.924;2023-04-06T04:12:18;7.00;;;4.93;;
42614;SDS011;28754;47.700;7.924;2023-04-06T04:15:05;10.90;;;5.05;;
42614;SDS011;28754;47.700;7.924;2023-04-06T04:17:52;9.00;;;4.88;;
42614;SDS011;28754;47.700;7.924;2023-04-06T04:20:39;5.80;;;4.18;;
42614;SDS011;28754;47.700;7.924;2023-04-06T04:23:26;7.45;;;4.57;;
42614;SDS011;28754;47.700;7.924;2023-04-06T04:26:13;8.15;;;5.15;;
42614;SDS011;28754;47.700;7.924;2023-04-06T04:29:03;7.47;;;5.00;;
42614;SDS011;28754;47.700;7.924;2023-04-06T04:31:51;7.38;;;4.07;;
42614;SDS011;28754;47.700;7.924;2023-04-06T04:34:38;7.18;;;5.10;;
42614;SDS011;28754;47.700;7.924;2023-04-06T04:37:31;13.10;;;5.18;;
42614;SDS011;28754;47.700;7.924;2023-04-06T04:40:20;12.18;;;5.47;;
42614;SDS011;28754;47.700;7.924;2023-04-06T04:43:12;8.80;;;4.90;;
42614;SDS011;28754;47.700;7.924;2023-04-06T04:45:59;7.45;;;4.45;;
42614;SDS011;28754;47.700;7.924;2023-04-06T04:48:56;8.25;;;5.30;;
42614;SDS011;28754;47.700;7.924;2023-04-06T04:51:43;7.13;;;4.65;;
42614;SDS011;28754;47.700;7.924;2023-04-06T04:54:32;8.48;;;5.03;;
42614;SDS011;28754;47.700;7.924;2023-04-06T04:57:19;7.28;;;4.55;;
42614;SDS011;28754;47.700;7.924;2023-04-06T05:00:06;7.18;;;5.18;;
42614;SDS011;28754;47.700;7.924;2023-04-06T05:02:56;8.20;;;4.55;;
42614;SDS011;28754;47.700;7.924;2023-04-06T05:05:49;8.68;;;4.80;;
42614;SDS011;28754;47.700;7.924;2023-04-06T05:08:37;8.05;;;4.32;;
42614;SDS011;28754;47.700;7.924;2023-04-06T05:11:24;9.55;;;5.80;;
42614;SDS011;28754;47.700;7.924;2023-04-06T05:14:17;7.78;;;4.55;;
42614;SDS011;28754;47.700;7.924;2023-04-06T05:17:05;7.28;;;4.90;;
42614;SDS011;28754;47.700;7.924;2023-04-06T05:19:51;6.75;;;4.47;;
42614;SDS011;28754;47.700;7.924;2023-04-06T05:22:42;7.93;;;4.90;;
42614;SDS011;28754;47.700;7.924;2023-04-06T05:25:30;7.10;;;5.20;;
42614;SDS011;28754;47.700;7.924;2023-04-06T05:28:26;7.68;;;5.00;;
42614;SDS011;28754;47.700;7.924;2023-04-06T05:31:13;7.55;;;4.63;;
42614;SDS011;28754;47.700;7.924;2023-04-06T05:34:06;7.13;;;4.70;;
42614;SDS011;28754;47.700;7.924;2023-04-06T05:36:58;8.77;;;4.07;;
42614;SDS011;28754;47.700;7.924;2023-04-06T05:39:45;7.78;;;4.75;;
42614;SDS011;28754;47.700;7.924;2023-04-06T05:42:40;7.60;;;4.60;;
42614;SDS011;28754;47.700;7.924;2023-04-06T05:45:31;7.43;;;4.10;;
42614;SDS011;28754;47.700;7.924;2023-04-06T05:48:18;7.68;;;4.63;;
42614;SDS011;28754;47.700;7.924;2023-04-06T05:51:05;8.23;;;4.55;;
42614;SDS011;28754;47.700;7.924;2023-04-06T05:54:01;6.18;;;4.28;;
42614;SDS011;28754;47.700;7.924;2023-04-06T05:56:48;7.88;;;5.22;;
42614;SDS011;28754;47.700;7.924;2023-04-06T05:59:35;8.50;;;5.10;;
42614;SDS011;28754;47.700;7.924;2023-04-06T06:02:22;16.02;;;5.20;;
42614;SDS011;28754;47.700;7.924;2023-04-06T06:05:11;5.40;;;3.92;;
42614;SDS011;28754;47.700;7.924;2023-04-06T06:08:00;6.25;;;4.43;;
42614;SDS011;28754;47.700;7.924;2023-04-06T06:10:49;6.97;;;4.40;;
42614;SDS011;28754;47.700;7.924;2023-04-06T06:13:39;6.45;;;4.65;;
42614;SDS011;28754;47.700;7.924;2023-04-06T06:16:26;11.48;;;4.63;;
42614;SDS011;28754;47.700;7.924;2023-04-06T06:19:13;8.63;;;4.63;;
42614;SDS011;28754;47.700;7.924;2023-04-06T06:21:59;8.55;;;5.43;;
42614;SDS011;28754;47.700;7.924;2023-04-06T06:24:48;9.60;;;4.40;;
42614;SDS011;28754;47.700;7.924;2023-04-06T06:27:38;7.45;;;4.78;;
42614;SDS011;28754;47.700;7.924;2023-04-06T06:30:25;13.00;;;4.30;;
42614;SDS011;28754;47.700;7.924;2023-04-06T06:33:12;5.25;;;3.67;;
42614;SDS011;28754;47.700;7.924;2023-04-06T06:35:59;6.03;;;4.32;;
42614;SDS011;28754;47.700;7.924;2023-04-06T06:38:46;5.80;;;4.25;;
42614;SDS011;28754;47.700;7.924;2023-04-06T06:41:35;5.57;;;3.80;;
42614;SDS011;28754;47.700;7.924;2023-04-06T06:44:22;10.98;;;4.07;;
42614;SDS011;28754;47.700;7.924;2023-04-06T06:47:10;10.38;;;5.15;;
42614;SDS011;28754;47.700;7.924;2023-04-06T06:49:57;7.78;;;4.57;;
42614;SDS011;28754;47.700;7.924;2023-04-06T06:52:43;8.02;;;4.85;;
42614;SDS011;28754;47.700;7.924;2023-04-06T06:55:30;5.70;;;3.85;;
42614;SDS011;28754;47.700;7.924;2023-04-06T06:58:17;5.43;;;3.90;;
42614;SDS011;28754;47.700;7.924;2023-04-06T07:01:06;6.68;;;4.50;;
42614;SDS011;28754;47.700;7.924;2023-04-06T07:03:54;8.40;;;4.00;;
42614;SDS011;28754;47.700;7.924;2023-04-06T07:06:40;8.60;;;4.40;;
42614;SDS011;28754;47.700;7.924;2023-04-06T07:09:27;8.27;;;4.47;;
42614;SDS011;28754;47.700;7.924;2023-04-06T07:12:14;8.20;;;4.15;;
42614;SDS011;28754;47.700;7.924;2023-04-06T07:15:02;6.65;;;4.43;;
42614;SDS011;28754;47.700;7.924;2023-04-06T07:17:49;6.70;;;3.83;;
42614;SDS011;28754;47.700;7.924;2023-04-06T07:20:38;11.43;;;4.88;;
42614;SDS011;28754;47.700;7.924;2023-04-06T07:23:25;6.50;;;3.88;;
42614;SDS011;28754;47.700;7.924;2023-04-06T07:26:12;5.60;;;3.95;;
42614;SDS011;28754;47.700;7.924;2023-04-06T07:28:58;7.15;;;5.03;;
42614;SDS011;28754;47.700;7.924;2023-04-06T07:31:45;8.07;;;4.53;;
42614;SDS011;28754;47.700;7.924;2023-04-06T07:34:32;7.35;;;4.15;;
42614;SDS011;28754;47.700;7.924;2023-04-06T07:37:19;6.15;;;3.97;;
42614;SDS011;28754;47.700;7.924;2023-04-06T07:40:07;6.63;;;3.92;;
42614;SDS011;28754;47.700;7.924;2023-04-06T07:42:55;6.43;;;4.10;;
42614;SDS011;28754;47.700;7.924;2023-04-06T07:45:41;10.45;;;4.55;;
42614;SDS011;28754;47.700;7.924;2023-04-06T07:48:29;5.82;;;3.40;;
42614;SDS011;28754;47.700;7.924;2023-04-06T07:51:15;5.32;;;3.60;;
42614;SDS011;28754;47.700;7.924;2023-04-06T07:54:03;8.55;;;4.38;;
42614;SDS011;28754;47.700;7.924;2023-04-06T07:56:51;8.35;;;4.63;;
42614;SDS011;28754;47.700;7.924;2023-04-06T07:59:37;6.30;;;4.00;;
42614;SDS011;28754;47.700;7.924;2023-04-06T08:02:24;5.38;;;3.60;;
42614;SDS011;28754;47.700;7.924;2023-04-06T08:05:11;9.02;;;4.57;;
42614;SDS011;28754;47.700;7.924;2023-04-06T08:07:58;5.43;;;4.10;;
42614;SDS011;28754;47.700;7.924;2023-04-06T08:10:44;9.48;;;4.22;;
42614;SDS011;28754;47.700;7.924;2023-04-06T08:13:31;7.00;;;3.75;;
42614;SDS011;28754;47.700;7.924;2023-04-06T08:16:18;7.78;;;3.95;;
42614;SDS011;28754;47.700;7.924;2023-04-06T08:19:07;23.38;;;5.57;;
42614;SDS011;28754;47.700;7.924;2023-04-06T08:21:58;5.85;;;3.53;;
42614;SDS011;28754;47.700;7.924;2023-04-06T08:24:44;6.65;;;3.97;;
42614;SDS011;28754;47.700;7.924;2023-04-06T08:27:31;6.63;;;4.40;;
42614;SDS011;28754;47.700;7.924;2023-04-06T08:30:21;8.10;;;5.45;;
42614;SDS011;28754;47.700;7.924;2023-04-06T08:33:08;5.20;;;3.90;;
42614;SDS011;28754;47.700;7.924;2023-04-06T08:35:57;7.88;;;4.32;;
42614;SDS011;28754;47.700;7.924;2023-04-06T08:38:43;6.20;;;4.53;;
42614;SDS011;28754;47.700;7.924;2023-04-06T08:41:33;7.05;;;4.50;;
42614;SDS011;28754;47.700;7.924;2023-04-06T08:44:20;7.47;;;4.50;;
42614;SDS011;28754;47.700;7.924;2023-04-06T08:47:07;8.95;;;4.15;;
42614;SDS011;28754;47.700;7.924;2023-04-06T08:49:54;6.85;;;4.13;;
42614;SDS011;28754;47.700;7.924;2023-04-06T08:52:43;7.40;;;4.78;;
42614;SDS011;28754;47.700;7.924;2023-04-06T08:55:33;7.40;;;4.22;;
42614;SDS011;28754;47.700;7.924;2023-04-06T08:58:21;8.48;;;4.85;;
42614;SDS011;28754;47.700;7.924;2023-04-06T09:01:17;7.75;;;4.10;;
42614;SDS011;28754;47.700;7.924;2023-04-06T09:04:06;8.13;;;4.53;;
42614;SDS011;28754;47.700;7.924;2023-04-06T09:07:00;6.30;;;4.97;;
42614;SDS011;28754;47.700;7.924;2023-04-06T09:09:49;5.43;;;4.00;;
42614;SDS011;28754;47.700;7.924;2023-04-06T09:12:38;7.95;;;4.53;;
42614;SDS011;28754;47.700;7.924;2023-04-06T09:15:24;6.43;;;4.03;;
42614;SDS011;28754;47.700;7.924;2023-04-06T09:18:11;6.88;;;4.32;;
42614;SDS011;28754;47.700;7.924;2023-04-06T09:20:58;7.78;;;4.43;;
42614;SDS011;28754;47.700;7.924;2023-04-06T09:24:01;9.18;;;3.78;;
42614;SDS011;28754;47.700;7.924;2023-04-06T09:26:49;6.05;;;3.75;;
42614;SDS011;28754;47.700;7.924;2023-04-06T09:29:35;9.45;;;4.30;;
42614;SDS011;28754;47.700;7.924;2023-04-06T09:32:22;6.00;;;3.70;;
42614;SDS011;28754;47.700;7.924;2023-04-06T09:35:09;7.28;;;4.53;;
42614;SDS011;28754;47.700;7.924;2023-04-06T09:37:56;9.95;;;4.75;;
42614;SDS011;28754;47.700;7.924;2023-04-06T09:40:47;12.77;;;5.07;;
42614;SDS011;28754;47.700;7.924;2023-04-06T09:43:37;6.07;;;3.88;;
42614;SDS011;28754;47.700;7.924;2023-04-06T09:46:24;6.28;;;3.80;;
42614;SDS011;28754;47.700;7.924;2023-04-06T09:49:11;7.47;;;4.05;;
42614;SDS011;28754;47.700;7.924;2023-04-06T09:51:59;6.25;;;3.90;;
42614;SDS011;28754;47.700;7.924;2023-04-06T09:54:50;7.10;;;4.53;;
42614;SDS011;28754;47.700;7.924;2023-04-06T09:57:49;8.02;;;4.85;;
42614;SDS011;28754;47.700;7.924;2023-04-06T10:07:20;7.47;;;4.88;;
42614;SDS011;28754;47.700;7.924;2023-04-06T10:10:08;5.68;;;3.88;;
42614;SDS011;28754;47.700;7.924;2023-04-06T10:12:57;7.20;;;4.07;;
42614;SDS011;28754;47.700;7.924;2023-04-06T10:15:44;7.53;;;4.50;;
42614;SDS011;28754;47.700;7.924;2023-04-06T10:18:31;6.78;;;4.13;;
42614;SDS011;28754;47.700;7.924;2023-04-06T10:21:20;5.95;;;3.42;;
42614;SDS011;28754;47.700;7.924;2023-04-06T10:24:12;7.05;;;4.28;;
42614;SDS011;28754;47.700;7.924;2023-04-06T10:27:02;6.95;;;4.53;;
42614;SDS011;28754;47.700;7.924;2023-04-06T10:29:52;7.97;;;4.28;;
42614;SDS011;28754;47.700;7.924;2023-04-06T10:32:38;7.32;;;4.20;;
42614;SDS011;28754;47.700;7.924;2023-04-06T10:35:35;7.78;;;4.80;;
42614;SDS011;28754;47.700;7.924;2023-04-06T10:38:34;6.22;;;3.22;;
42614;SDS011;28754;47.700;7.924;2023-04-06T10:41:22;6.70;;;3.92;;
42614;SDS011;28754;47.700;7.924;2023-04-06T10:44:17;6.90;;;4.15;;
42614;SDS011;28754;47.700;7.924;2023-04-06T10:47:38;8.02;;;4.68;;
42614;SDS011;28754;47.700;7.924;2023-04-06T10:51:18;8.73;;;3.90;;
42614;SDS011;28754;47.700;7.924;2023-04-06T10:54:12;6.75;;;3.78;;
42614;SDS011;28754;47.700;7.924;2023-04-06T10:57:06;6.25;;;3.85;;
42614;SDS011;28754;47.700;7.924;2023-04-06T11:00:36;8.57;;;3.80;;
42614;SDS011;28754;47.700;7.924;2023-04-06T11:03:42;7.05;;;3.55;;
42614;SDS011;28754;47.700;7.924;2023-04-06T11:11:12;7.10;;;3.63;;
42614;SDS011;28754;47.700;7.924;2023-04-06T11:14:13;4.55;;;3.17;;
42614;SDS011;28754;47.700;7.924;2023-04-06T11:17:03;10.32;;;3.72;;
42614;SDS011;28754;47.700;7.924;2023-04-06T11:20:20;8.40;;;4.25;;
42614;SDS011;28754;47.700;7.924;2023-04-06T11:23:24;6.72;;;3.35;;
42614;SDS011;28754;47.700;7.924;2023-04-06T11:26:31;5.60;;;2.95;;
42614;SDS011;28754;47.700;7.924;2023-04-06T11:29:35;7.88;;;3.33;;
42614;SDS011;28754;47.700;7.924;2023-04-06T11:32:43;5.68;;;3.38;;
42614;SDS011;28754;47.700;7.924;2023-04-06T11:35:34;4.75;;;3.05;;
42614;SDS011;28754;47.700;7.924;2023-04-06T11:38:27;5.78;;;2.78;;
42614;SDS011;28754;47.700;7.924;2023-04-06T11:41:14;5.10;;;2.97;;
42614;SDS011;28754;47.700;7.924;2023-04-06T11:44:01;7.38;;;3.60;;
42614;SDS011;28754;47.700;7.924;2023-04-06T11:50:58;5.43;;;2.70;;
42614;SDS011;28754;47.700;7.924;2023-04-06T11:53:50;7.85;;;3.58;;
42614;SDS011;28754;47.700;7.924;2023-04-06T11:57:41;7.50;;;3.75;;
42614;SDS011;28754;47.700;7.924;2023-04-06T12:00:34;19.63;;;4.63;;
42614;SDS011;28754;47.700;7.924;2023-04-06T12:08:01;10.48;;;3.72;;
42614;SDS011;28754;47.700;7.924;2023-04-06T12:10:51;5.65;;;3.08;;
42614;SDS011;28754;47.700;7.924;2023-04-06T12:13:41;6.90;;;3.60;;
42614;SDS011;28754;47.700;7.924;2023-04-06T12:16:28;6.95;;;4.22;;
42614;SDS011;28754;47.700;7.924;2023-04-06T12:19:26;9.55;;;3.13;;
42614;SDS011;28754;47.700;7.924;2023-04-06T12:23:19;7.10;;;3.80;;
42614;SDS011;28754;47.700;7.924;2023-04-06T12:26:06;7.70;;;3.72;;
42614;SDS011;28754;47.700;7.924;2023-04-06T12:29:07;6.30;;;3.55;;
42614;SDS011;28754;47.700;7.924;2023-04-06T12:33:22;6.13;;;3.45;;
42614;SDS011;28754;47.700;7.924;2023-04-06T12:36:18;5.90;;;3.72;;
42614;SDS011;28754;47.700;7.924;2023-04-06T12:39:16;5.03;;;3.58;;
42614;SDS011;28754;47.700;7.924;2023-04-06T12:42:44;5.55;;;3.35;;
42614;SDS011;28754;47.700;7.924;2023-04-06T12:45:42;6.57;;;3.80;;
42614;SDS011;28754;47.700;7.924;2023-04-06T12:53:26;6.10;;;3.63;;
42614;SDS011;28754;47.700;7.924;2023-04-06T12:57:32;4.63;;;2.45;;
42614;SDS011;28754;47.700;7.924;2023-04-06T13:00:36;6.50;;;3.40;;
42614;SDS011;28754;47.700;7.924;2023-04-06T13:03:23;6.95;;;3.75;;
42614;SDS011;28754;47.700;7.924;2023-04-06T13:06:18;6.93;;;3.60;;
42614;SDS011;28754;47.700;7.924;2023-04-06T13:09:15;7.18;;;3.50;;
42614;SDS011;28754;47.700;7.924;2023-04-06T13:15:53;8.38;;;3.08;;
42614;SDS011;28754;47.700;7.924;2023-04-06T13:19:02;4.22;;;2.50;;
42614;SDS011;28754;47.700;7.924;2023-04-06T13:21:52;4.30;;;2.33;;
42614;SDS011;28754;47.700;7.924;2023-04-06T13:24:39;4.63;;;2.22;;
42614;SDS011;28754;47.700;7.924;2023-04-06T13:27:26;6.78;;;2.33;;
42614;SDS011;28754;47.700;7.924;2023-04-06T13:30:14;7.68;;;2.40;;
42614;SDS011;28754;47.700;7.924;2023-04-06T13:33:03;4.57;;;2.03;;
42614;SDS011;28754;47.700;7.924;2023-04-06T13:35:52;3.47;;;1.80;;
42614;SDS011;28754;47.700;7.924;2023-04-06T13:38:39;2.95;;;2.03;;
42614;SDS011;28754;47.700;7.924;2023-04-06T13:41:26;1.75;;;1.33;;
42614;SDS011;28754;47.700;7.924;2023-04-06T13:44:13;2.42;;;1.50;;
42614;SDS011;28754;47.700;7.924;2023-04-06T13:47:00;4.15;;;1.70;;
42614;SDS011;28754;47.700;7.924;2023-04-06T13:49:49;2.88;;;1.70;;
42614;SDS011;28754;47.700;7.924;2023-04-06T13:52:45;5.20;;;2.10;;
42614;SDS011;28754;47.700;7.924;2023-04-06T13:55:38;3.85;;;2.17;;
42614;SDS011;28754;47.700;7.924;2023-04-06T13:58:25;4.35;;;2.00;;
42614;SDS011;28754;47.700;7.924;2023-04-06T14:01:15;5.90;;;2.55;;
42614;SDS011;28754;47.700;7.924;2023-04-06T14:04:01;4.47;;;2.58;;
42614;SDS011;28754;47.700;7.924;2023-04-06T14:06:51;3.17;;;2.08;;
42614;SDS011;28754;47.700;7.924;2023-04-06T14:09:45;3.47;;;1.95;;
42614;SDS011;28754;47.700;7.924;2023-04-06T14:12:39;5.55;;;3.47;;
42614;SDS011;28754;47.700;7.924;2023-04-06T14:15:34;4.22;;;2.28;;
42614;SDS011;28754;47.700;7.924;2023-04-06T14:18:21;5.35;;;3.03;;
42614;SDS011;28754;47.700;7.924;2023-04-06T14:21:10;5.75;;;3.05;;
42614;SDS011;28754;47.700;7.924;2023-04-06T14:23:57;5.95;;;2.63;;
42614;SDS011;28754;47.700;7.924;2023-04-06T14:26:44;6.18;;;2.55;;
42614;SDS011;28754;47.700;7.924;2023-04-06T14:29:40;5.05;;;2.92;;
42614;SDS011;28754;47.700;7.924;2023-04-06T14:32:57;7.25;;;3.55;;
42614;SDS011;28754;47.700;7.924;2023-04-06T14:35:47;5.90;;;3.25;;
42614;SDS011;28754;47.700;7.924;2023-04-06T14:39:08;7.03;;;3.60;;
42614;SDS011;28754;47.700;7.924;2023-04-06T14:42:36;7.75;;;3.75;;
42614;SDS011;28754;47.700;7.924;2023-04-06T14:45:46;5.38;;;3.30;;
42614;SDS011;28754;47.700;7.924;2023-04-06T14:49:16;8.68;;;3.80;;
42614;SDS011;28754;47.700;7.924;2023-04-06T14:52:50;6.65;;;3.30;;
42614;SDS011;28754;47.700;7.924;2023-04-06T14:55:43;7.40;;;3.50;;
42614;SDS011;28754;47.700;7.924;2023-04-06T14:58:30;7.40;;;3.67;;
42614;SDS011;28754;47.700;7.924;2023-04-06T15:01:18;6.18;;;3.47;;
42614;SDS011;28754;47.700;7.924;2023-04-06T15:04:06;5.05;;;3.40;;
42614;SDS011;28754;47.700;7.924;2023-04-06T15:06:55;7.40;;;3.67;;
42614;SDS011;28754;47.700;7.924;2023-04-06T15:12:35;5.78;;;3.38;;
42614;SDS011;28754;47.700;7.924;2023-04-06T15:15:22;7.82;;;3.97;;
42614;SDS011;28754;47.700;7.924;2023-04-06T15:18:09;7.60;;;4.82;;
42614;SDS011;28754;47.700;7.924;2023-04-06T15:20:57;5.22;;;3.70;;
42614;SDS011;28754;47.700;7.924;2023-04-06T15:23:43;9.32;;;5.03;;
42614;SDS011;28754;47.700;7.924;2023-04-06T15:26:30;10.85;;;5.13;;
42614;SDS011;28754;47.700;7.924;2023-04-06T15:29:17;10.27;;;4.50;;
42614;SDS011;28754;47.700;7.924;2023-04-06T15:32:04;7.55;;;4.63;;
42614;SDS011;28754;47.700;7.924;2023-04-06T15:34:50;7.43;;;4.85;;
42614;SDS011;28754;47.700;7.924;2023-04-06T15:37:39;9.48;;;4.22;;
42614;SDS011;28754;47.700;7.924;2023-04-06T15:40:25;10.55;;;4.97;;
42614;SDS011;28754;47.700;7.924;2023-04-06T15:43:13;7.93;;;4.53;;
42614;SDS011;28754;47.700;7.924;2023-04-06T15:46:03;7.05;;;4.40;;
42614;SDS011;28754;47.700;7.924;2023-04-06T15:48:51;8.65;;;4.97;;
42614;SDS011;28754;47.700;7.924;2023-04-06T15:51:38;9.82;;;5.57;;
42614;SDS011;28754;47.700;7.924;2023-04-06T15:54:25;10.77;;;5.10;;
42614;SDS011;28754;47.700;7.924;2023-04-06T15:57:12;9.95;;;5.20;;
42614;SDS011;28754;47.700;7.924;2023-04-06T16:00:11;8.00;;;4.97;;
42614;SDS011;28754;47.700;7.924;2023-04-06T16:03:00;7.63;;;4.45;;
42614;SDS011;28754;47.700;7.924;2023-04-06T16:05:47;8.27;;;5.10;;
42614;SDS011;28754;47.700;7.924;2023-04-06T16:08:34;16.17;;;5.70;;
42614;SDS011;28754;47.700;7.924;2023-04-06T16:11:21;7.53;;;4.80;;
42614;SDS011;28754;47.700;7.924;2023-04-06T16:14:08;10.00;;;5.05;;
42614;SDS011;28754;47.700;7.924;2023-04-06T16:16:55;8.25;;;4.90;;
42614;SDS011;28754;47.700;7.924;2023-04-06T16:19:42;5.82;;;3.38;;
42614;SDS011;28754;47.700;7.924;2023-04-06T16:22:28;6.35;;;3.60;;
42614;SDS011;28754;47.700;7.924;2023-04-06T16:25:15;6.45;;;3.47;;
42614;SDS011;28754;47.700;7.924;2023-04-06T16:28:02;4.80;;;2.88;;
42614;SDS011;28754;47.700;7.924;2023-04-06T16:30:49;4.88;;;3.03;;
42614;SDS011;28754;47.700;7.924;2023-04-06T16:33:36;6.65;;;3.17;;
42614;SDS011;28754;47.700;7.924;2023-04-06T16:36:23;5.22;;;2.60;;
42614;SDS011;28754;47.700;7.924;2023-04-06T16:39:16;5.50;;;2.90;;
42614;SDS011;28754;47.700;7.924;2023-04-06T16:42:03;6.25;;;3.28;;
42614;SDS011;28754;47.700;7.924;2023-04-06T16:44:50;6.85;;;4.22;;
42614;SDS011;28754;47.700;7.924;2023-04-06T16:47:37;3.55;;;2.40;;
42614;SDS011;28754;47.700;7.924;2023-04-06T16:50:24;6.13;;;3.15;;
42614;SDS011;28754;47.700;7.924;2023-04-06T16:53:11;4.85;;;2.83;;
42614;SDS011;28754;47.700;7.924;2023-04-06T16:56:02;7.47;;;3.45;;
42614;SDS011;28754;47.700;7.924;2023-04-06T16:58:57;9.50;;;5.38;;
42614;SDS011;28754;47.700;7.924;2023-04-06T17:01:43;10.98;;;4.75;;
42614;SDS011;28754;47.700;7.924;2023-04-06T17:04:30;4.70;;;3.80;;
42614;SDS011;28754;47.700;7.924;2023-04-06T17:07:20;8.07;;;3.70;;
42614;SDS011;28754;47.700;7.924;2023-04-06T17:10:10;11.15;;;7.38;;
42614;SDS011;28754;47.700;7.924;2023-04-06T17:12:59;9.15;;;7.35;;
42614;SDS011;28754;47.700;7.924;2023-04-06T17:15:46;8.55;;;5.68;;
42614;SDS011;28754;47.700;7.924;2023-04-06T17:18:39;8.32;;;4.72;;
42614;SDS011;28754;47.700;7.924;2023-04-06T17:21:26;7.95;;;5.15;;
42614;SDS011;28754;47.700;7.924;2023-04-06T17:24:16;6.78;;;4.85;;
42614;SDS011;28754;47.700;7.924;2023-04-06T17:27:03;5.82;;;4.40;;
42614;SDS011;28754;47.700;7.924;2023-04-06T17:29:52;8.07;;;5.20;;
42614;SDS011;28754;47.700;7.924;2023-04-06T17:32:39;9.90;;;5.53;;
42614;SDS011;28754;47.700;7.924;2023-04-06T17:35:26;9.40;;;6.07;;
42614;SDS011;28754;47.700;7.924;2023-04-06T17:38:13;9.15;;;4.93;;
42614;SDS011;28754;47.700;7.924;2023-04-06T17:41:00;9.95;;;6.43;;
42614;SDS011;28754;47.700;7.924;2023-04-06T17:43:49;11.55;;;5.93;;